Timeline UpdatesTrip UpdatesNews PostsPvt Posts♥♥Travel TipsAdmin PostsConv PostsFollowed PostsChat RequestsBlog PostsPNR Posts

Disclaimer
Search
 
 
Sun Nov 23, 2014 15:27:19 ISTHomeTrainsΣChainsAtlasPNRForumGalleryNewsFAQTripsMembersLoginFeedback
No Recent News for this Train
Other Trains in the News **new
Latest...
.
Wed Oct 29, 2014 (11:00PM)
⇐ Return Journey: Train# 16338

16337/Okha-Ernakulam Express

Time-Table HAS CHANGED.
Oct 29 (11:00PM)
Change Departure Station:
Change Arrival Station:
Post a Train Travel TipPost a Train Travel Tip **new
Post a Comment/Question/Picture/VideoPost a Comment/Question/Picture/Video
Pantry/Catering
✓ Pantry Car Avbl
✓ Catering Avbl
RSA - Rake Sharing
12683/84 Ernakulam Bangalore Express
Rake/Coach Composition
SLR-UR-A1-B2-B1-S12-S11-PC-S10-S9-S8-S7-S6-S5-S4-S3-S2-S1-UR-UR-SLR.; Author: Mahesh Kavthankar.; Entry# 276086.
Loco
ERS WDM3A
News    PNR    Forum    Time-Table    Availability    Fare Chart    Map    Arr/Dep History    Trips    Gallery    ΣChains    X/O    Timeline    
Travel Time: 38h 23m    36 halts    Distance: 1992 km    Avg Speed: 51 km/hr
Type: Mail/Express
Zone: SR/Southern
Departs @ 02:00 (Avg on time)
Platform# 1
 M    S
Okha/OKHA 
Arrives @ 16:23 +1 night (Avg 40m late)
Platform# 2
S T    
Thalassery/TLY 

36 halts. 257 intermediate Stations between Okha and Thalassery

Show ALL intermediate Stations  Show Old Time-Table

#TrkCodeStation NameX/OArrivesAvgDepartsAvgHaltPFDay#KmSpeedElevZoneAddress
1|--|OKHAOkha (3)»  -02:00+0110.0615mWROkha, Gujarat
2|--|DWKDwarka (2)  02:28+302:30+62m--128.66614mWRDwarka, Gujarat
3|--|KMBLKhambhalia  03:56 03:46+303:58 03:48+52m--1112.75949mWRKhambhalia, Gujarat
4|--|JAMJamnagar (2)X  05:06 04:43+305:08 04:45+202m--1167.02014mWRJamnagar, Gujarat
5|--|HAPAHapa (3)  05:21 05:11+205:23 05:13+92m--1175.75716mWRJamnagar, Gujarat
6|--|RJTRajkot Junction (5)X  06:33+206:35+92m11251.661128mWRRajkot, Gujarat
7|-=!SUNRSurendranagar Junction (4)X  08:30+1608:32+172m--1367.65072mWRSurendra Nagar, Gujarat
8|==|VGViramgam Junction (5)  09:50+1009:52+102m21433.15429mWRViramgam, Gujarat
9/==/ADIAhmedabad Junction (12)X  11:05+811:25+220m51498.56251mWRAhmedabad, Gujarat
10/==/ANNDAnand Junction (6)X  12:27+1612:29+162m11562.55244mWRAnand, Gujarat
11/==/BRCVadodara Junction (7)X  13:10+1813:12+252m11598.37036mWRVadodara 390005, Gujarat
12/==/AKVAnkleshwar Junction (4)X  14:20+2714:22+232m21678.14219mWRAnkleshwar, Gujarat
13/==/STSurat (4)X  15:33+915:35+222m21728.15719mWRSurat 395001, Gujarat
14/==/NVSNavsari (3)  16:06+1916:08+192m21757.76214mWRNavsari, Gujarat
15/==/BLValsad (3)X  16:48 16:46+1516:53 16:48+165 2m31796.84515mWRValsad, Gujarat
16/==/BORBoisar (3)X  18:57 18:56-318:59 18:57+12 1m--1893.33317mWRBoisar Tel.no-02525-266626, Maharashtra
17/==/BSRVasai Road (7)  20:30-420:40+010m71944.1637mWRVasai 401202, Maharashtra
18/==/BIRDBhiwandi Road (4)X  21:06+921:08+102m11971.44226mCRBhiwandi, Maharashtra
19|--|PNVLPanvel Junction (7)  22:00+1722:05+235m711008.05010mCRPanvel, Maharashtra
20|--|MNIMangaon (2)X  00:12+3600:14+362m121114.26712mKRMangaon - 402104, Maharashtra
21|--|RNRatnagiri (3)  03:35 02:50+5203:40 02:55+535m121287.175129mKRRatnagiri 415612, Maharashtra
22|--|KKWKankavali (2)  05:42 04:24+1:2205:44 04:26+1:262m121398.55245mKRKankavli - 416602, Maharashtra
23|--|THVMThivim (2)X  07:08 05:56+1:3107:10 05:58+1:422m121477.02921mKRThivim - 403502, Goa
24|--|MAOMadgaon Junction (3)  09:20 07:30+4809:30 07:40+5410m121521.95311mKRMadgaon 403601, Goa
25|--|KAWRKarwar (2)  10:35 08:50+5210:37 08:52+522m121583.36814mKRKarwar, Karnataka
26|--|HNAHonnavar (2)  11:56 09:53+5411:58 09:55+572m--21652.2634mKRUttara Kannada Dist, Karnataka
27|--|BTJLBhatkal (2)  12:38 10:34+5512:40 10:36+552m121693.14616mKRBhatkal - 581320, Karnataka
28|--|BYNRByndoor Mookambika Road (1)  12:56 10:56+012:58 10:58+02m121708.37710mKRUdupi Dist. 576214, Karnataka
29|--|KUDAKundapura (2)  13:26 11:24+1:0613:28 11:26+1:102m121741.86913mKRKundapura - 576211, Karnataka
30|--|UDUdupi (2)  14:02 11:54+1:0714:04 11:56+1:122m121773.85718mKRUdupi, Karnataka
31|--|SLSurathkal (1)  14:52 12:40+1:0614:54 12:42+1:062m121815.72122mKRSurathkal, Karnataka
32|--|MAJNMangalore Junction (3)  16:00 13:40+5016:10 13:45+5710 5m121836.26824mSRMangalore 575001, Karnataka
33%==%KGQKasaragod (3)  17:08 14:28+5917:10 14:30+592m--21885.37718mSRTel: 04994 220800, Kerala
34%==%KZEKanhangad (3)  17:28 14:48+5817:30 14:50+572m--21908.46315mSRKanhangad, Kerala
35%==%PAYPayyanur (3)  17:53 15:18+5917:55 15:20+592m221937.7880mSRKannur District, Kerala
36%==%KPQKannapuram (2)  18:10 15:33+5318:12 15:35+522m221956.9299mSRKannur District, Kerala
37%==%CANKannur Main (4)  18:45 16:05+4818:50 16:10+505m321971.39514mSRKannur Tel: 0497 2705555, Kerala
38%==%TLYThalassery (2)•  19:08 16:23+4019:10 16:25+402m221992.0749mSRKannur, Kerala
39%==%BDJVadakara (2)  19:30 16:43+4819:32 16:45+482m122014.17311mSRCalicut / Station Ph No : 0496-2524254, Kerala
40%==%QLDKoyilandy (3)X  19:48 17:03+4419:50 17:05+442m222036.14211mSRQuilandi, Kerala
41%==%CLTKozhikode Main (4)XO  20:25 17:40+3820:30 17:45+415m122060.44611mSRCalicut Tel: 0495 2701234, Kerala
42%==%FKFerok (2)X  20:43 17:58+4720:45 18:00+492m122070.46119mSRFeroke, Kerala
43%==%PGIParappangadi (2)X  20:58 18:15+5121:00 18:17+532m122085.66019mSRParappanangadi, Kerala
44%==%TIRTirur (3)X  21:18 18:33+4721:20 18:35+482m322101.6569mSRTel: 0494 2422240, Kerala
45%==%KTUKuttippuram (2)  21:38 18:51+5421:40 18:53+562m222116.77417mSRKuttippuram, Kerala
46%==%PTBPattambi (2)X  21:53 19:08+1:0321:55 19:10+1:022m222135.21521mSRPattambi, Kerala
47%==%SRRShoranur Junction (7)  22:50 19:55+3223:00 20:05+3610m422146.75626mSRShoranur ph.no 0466-2222913, Kerala
48/==/TCRThrissur (4)X  23:30 20:40+4123:33 20:43+413m122179.7706mSRThrissur Tel: 0487 2423150, Kerala
49/==/AWYAluva (3)X  00:20 21:30+3900:22 21:32+392m122234.32412mSRPh: 0484-2624141, Kerala
50/=-/ERSErnakulam Junction (South) (6)  01:15 22:20+31-522253.7-3mSRErnakulam 682016, Kerala
Scroll to Top
Scroll to Bottom